Time;durP1;ratioP1;P1;durP2;ratioP2;P2;SDS_P1;SDS_P2;PMS_P1;PMS_P2;Temp;Humidity;BMP_temperature;BMP_pressure;BME280_temperature;BME280_humidity;BME280_pressure;Samples;Min_cycle;Max_cycle;Signal;HPM_P1;HPM_P2
2022/11/09 06:00:37;;;;;;;6.70;1.70;;;16.20;76.80;;;;;;4889785;24;20049;-72
2022/11/09 06:03:09;;;;;;;8.75;1.65;;;16.10;76.90;;;;;;4880209;29;20053;-75
2022/11/09 06:05:36;;;;;;;4.25;1.83;;;16.10;76.70;;;;;;4878397;29;20045;-69
2022/11/09 06:08:11;;;;;;;6.68;1.83;;;16.10;76.50;;;;;;4881527;29;20048;-69
2022/11/09 06:10:38;;;;;;;6.38;1.60;;;16.20;76.30;;;;;;4881118;29;20471;-77
2022/11/09 06:13:04;;;;;;;5.22;1.33;;;16.20;76.00;;;;;;4881553;29;20409;-78
2022/11/09 06:15:30;;;;;;;10.02;1.80;;;16.10;75.70;;;;;;4880610;29;20372;-76
2022/11/09 06:17:56;;;;;;;8.93;1.80;;;16.10;75.50;;;;;;4880472;29;20049;-78
2022/11/09 06:20:23;;;;;;;6.63;1.73;;;16.10;75.40;;;;;;4895593;29;20064;-79
2022/11/09 06:23:00;;;;;;;7.57;1.15;;;16.10;75.50;;;;;;4896132;29;20051;-76
2022/11/09 06:25:27;;;;;;;7.00;1.40;;;16.10;75.60;;;;;;4896196;29;20179;-76
2022/11/09 06:27:54;;;;;;;11.85;2.25;;;16.10;75.70;;;;;;4881119;29;20140;-73
2022/11/09 06:30:20;;;;;;;7.40;1.50;;;16.10;76.40;;;;;;4881044;29;20053;-72
2022/11/09 06:32:45;;;;;;;5.68;1.35;;;16.10;75.70;;;;;;4881635;29;20053;-77
2022/11/09 06:35:11;;;;;;;11.73;1.45;;;16.10;75.70;;;;;;4864885;29;20334;-75
2022/11/09 06:37:37;;;;;;;11.60;2.22;;;16.10;75.70;;;;;;4884884;29;20064;-74
2022/11/09 06:40:03;;;;;;;8.30;1.67;;;16.10;75.70;;;;;;4899723;29;20052;-75
2022/11/09 06:42:29;;;;;;;7.90;1.90;;;16.10;75.60;;;;;;4899726;29;20040;-77
2022/11/09 06:44:55;;;;;;;10.13;1.92;;;16.10;75.50;;;;;;4883120;29;20173;-78
2022/11/09 06:47:20;;;;;;;10.70;1.98;;;16.10;75.20;;;;;;4895700;29;20089;-75
2022/11/09 06:49:46;;;;;;;11.15;2.75;;;16.10;75.40;;;;;;4880657;29;20400;-77
2022/11/09 06:52:12;;;;;;;9.95;1.65;;;16.00;75.50;;;;;;4880839;29;20049;-79
2022/11/09 06:54:38;;;;;;;11.65;1.88;;;15.90;75.80;;;;;;4880966;29;20053;-73
2022/11/09 06:57:03;;;;;;;13.65;2.00;;;15.80;76.10;;;;;;4881479;29;20060;-78
2022/11/09 06:59:29;;;;;;;14.18;2.40;;;15.80;76.10;;;;;;4884752;29;20061;-77
2022/11/09 07:01:55;;;;;;;11.05;1.88;;;15.80;76.60;;;;;;4883857;29;20544;-77
2022/11/09 07:04:20;;;;;;;12.48;2.33;;;15.90;77.00;;;;;;4884132;29;20552;-76
2022/11/09 07:06:46;;;;;;;10.68;2.58;;;15.90;77.00;;;;;;4881604;29;20049;-75
2022/11/09 07:09:12;;;;;;;15.93;2.97;;;15.90;77.20;;;;;;4884364;29;20055;-77
2022/11/09 07:11:38;;;;;;;15.30;3.25;;;15.90;77.30;;;;;;4884439;29;20057;-75
2022/11/09 07:14:03;;;;;;;14.32;4.15;;;16.00;77.30;;;;;;4884148;29;20040;-75
2022/11/09 07:16:30;;;;;;;18.58;4.40;;;16.00;77.30;;;;;;4883724;29;20049;-76
2022/11/09 07:18:56;;;;;;;13.82;3.58;;;16.00;77.30;;;;;;4884274;29;20053;-77
2022/11/09 07:21:22;;;;;;;12.30;3.78;;;16.00;77.20;;;;;;4883774;29;20052;-76
2022/11/09 07:23:49;;;;;;;17.80;3.78;;;16.00;77.10;;;;;;4884363;29;20099;-76
2022/11/09 07:26:15;;;;;;;10.75;3.67;;;16.00;77.10;;;;;;4883976;29;20057;-77
2022/11/09 07:28:42;;;;;;;12.32;3.30;;;16.00;77.10;;;;;;4884118;29;20040;-78
2022/11/09 07:31:08;;;;;;;9.40;3.45;;;16.00;77.20;;;;;;4868351;29;20056;-76
2022/11/09 07:33:34;;;;;;;10.18;3.42;;;16.00;77.30;;;;;;4883863;29;20060;-79
2022/11/09 07:36:02;;;;;;;10.82;3.63;;;16.00;77.20;;;;;;4882763;29;20353;-77
2022/11/09 07:38:28;;;;;;;9.65;3.50;;;16.00;77.90;;;;;;4883794;29;20045;-78
2022/11/09 07:40:56;;;;;;;8.27;3.15;;;16.00;77.30;;;;;;4883733;29;20048;-76
2022/11/09 07:43:22;;;;;;;27.60;3.92;;;16.00;77.40;;;;;;4853455;29;20085;-76
2022/11/09 07:45:48;;;;;;;9.68;3.35;;;16.00;77.60;;;;;;4883690;29;20411;-75
2022/11/09 07:48:14;;;;;;;8.57;3.28;;;16.00;77.40;;;;;;4883556;29;20040;-78
2022/11/09 07:50:40;;;;;;;8.68;3.47;;;16.10;77.30;;;;;;4881402;29;20064;-76
2022/11/09 07:53:07;;;;;;;8.25;3.28;;;16.10;77.00;;;;;;4881684;29;20118;-76
2022/11/09 07:55:34;;;;;;;9.10;3.45;;;16.10;76.70;;;;;;4881492;29;20053;-76
2022/11/09 07:58:02;;;;;;;8.95;3.15;;;16.10;76.60;;;;;;4883617;29;20053;-76
2022/11/09 08:00:30;;;;;;;8.10;3.00;;;16.10;76.60;;;;;;4883164;29;20060;-76
2022/11/09 08:02:56;;;;;;;6.45;2.72;;;16.10;76.60;;;;;;4883416;29;20053;-77
2022/11/09 08:05:22;;;;;;;10.45;3.72;;;16.10;76.70;;;;;;4882797;29;20049;-76
2022/11/09 08:07:52;;;;;;;6.80;2.70;;;16.10;76.70;;;;;;4882825;29;20085;-77
2022/11/09 08:10:18;;;;;;;6.90;2.45;;;16.10;76.60;;;;;;4883379;29;20052;-77
2022/11/09 08:12:44;;;;;;;8.07;3.33;;;16.10;76.70;;;;;;4883437;29;20048;-78
2022/11/09 08:15:10;;;;;;;6.80;2.85;;;16.10;76.70;;;;;;4883765;29;20051;-78
2022/11/09 08:17:35;;;;;;;7.15;3.15;;;16.10;76.60;;;;;;4882914;29;20387;-76
2022/11/09 08:20:01;;;;;;;7.22;3.15;;;16.10;76.60;;;;;;4882101;29;20048;-78
2022/11/09 08:22:27;;;;;;;10.30;3.08;;;16.10;76.60;;;;;;4883408;29;20064;-78
2022/11/09 08:24:53;;;;;;;5.72;2.30;;;16.10;76.70;;;;;;4883058;29;20049;-78
2022/11/09 08:27:19;;;;;;;12.40;2.95;;;16.10;76.60;;;;;;4882408;29;20045;-75
2022/11/09 08:29:44;;;;;;;11.02;2.13;;;16.10;75.70;;;;;;4881918;29;20082;-74
2022/11/09 08:32:10;;;;;;;12.50;2.08;;;16.00;73.10;;;;;;4882388;29;20448;-74
2022/11/09 08:34:39;;;;;;;7.70;1.98;;;15.90;72.80;;;;;;4883001;29;20053;-76
2022/11/09 08:37:05;;;;;;;14.15;2.20;;;15.80;73.10;;;;;;4883101;29;20441;-74
2022/11/09 08:39:36;;;;;;;11.45;2.13;;;15.70;73.80;;;;;;4882175;29;20085;-77
2022/11/09 08:42:02;;;;;;;8.20;1.40;;;15.70;74.20;;;;;;4882826;29;20131;-75
2022/11/09 08:44:28;;;;;;;8.98;1.90;;;15.70;74.60;;;;;;4883096;29;20541;-75
2022/11/09 08:46:54;;;;;;;12.50;1.98;;;15.70;75.10;;;;;;4883115;29;20045;-77
2022/11/09 08:49:19;;;;;;;6.95;1.70;;;15.70;75.50;;;;;;4866307;29;20452;-75
2022/11/09 08:51:45;;;;;;;7.15;1.50;;;15.70;75.80;;;;;;4882825;29;20041;-75
2022/11/09 08:54:12;;;;;;;6.57;1.60;;;15.70;76.10;;;;;;4882287;29;20127;-76
2022/11/09 08:56:38;;;;;;;10.02;1.92;;;15.70;76.20;;;;;;4882576;29;20144;-75
2022/11/09 08:59:04;;;;;;;12.40;1.98;;;15.70;76.30;;;;;;4882610;29;20056;-76
2022/11/09 09:01:30;;;;;;;9.52;1.63;;;15.70;76.10;;;;;;4865435;29;20053;-74
2022/11/09 09:03:55;;;;;;;10.98;2.70;;;15.70;75.70;;;;;;4882676;29;20061;-78
2022/11/09 09:06:21;;;;;;;9.95;2.28;;;15.80;75.30;;;;;;4882767;29;20053;-76
2022/11/09 09:08:47;;;;;;;8.43;2.05;;;15.80;75.00;;;;;;4882570;29;20048;-74
2022/11/09 09:11:12;;;;;;;7.43;1.70;;;15.80;74.90;;;;;;4882394;29;20049;-76
2022/11/09 09:13:38;;;;;;;7.95;1.55;;;15.80;74.90;;;;;;4882356;29;20079;-76
2022/11/09 09:16:12;;;;;;;8.52;1.80;;;15.80;74.90;;;;;;4882358;29;20124;-73
2022/11/09 09:18:38;;;;;;;6.90;1.73;;;15.80;74.80;;;;;;4881990;29;20053;-74
2022/11/09 09:21:09;;;;;;;9.07;2.35;;;15.80;74.70;;;;;;4882011;29;20452;-74
2022/11/09 09:23:34;;;;;;;6.53;2.13;;;15.90;74.60;;;;;;4882122;29;20045;-75
2022/11/09 09:26:00;;;;;;;10.85;2.25;;;15.90;74.60;;;;;;4880754;29;20057;-73
2022/11/09 09:28:26;;;;;;;6.75;1.60;;;15.90;74.50;;;;;;4882305;29;20049;-75
2022/11/09 09:30:52;;;;;;;11.43;1.83;;;15.90;74.40;;;;;;4882066;29;20136;-80
2022/11/09 09:33:17;;;;;;;11.43;1.70;;;15.90;74.50;;;;;;4882227;29;20051;-77
2022/11/09 09:35:43;;;;;;;9.45;1.60;;;15.90;74.60;;;;;;4881795;29;20053;-78
2022/11/09 09:38:09;;;;;;;8.23;1.60;;;15.90;74.70;;;;;;4881450;29;20144;-76
2022/11/09 09:40:58;;;;;;;7.22;1.38;;;15.90;74.80;;;;;;4865866;29;20136;-77
2022/11/09 09:43:30;;;;;;;7.65;2.00;;;15.90;74.90;;;;;;4881751;29;20049;-76
2022/11/09 09:45:57;;;;;;;6.38;1.33;;;15.90;74.90;;;;;;4881422;29;20049;-78
2022/11/09 09:48:29;;;;;;;8.68;2.03;;;15.90;75.00;;;;;;4881633;29;20081;-78
2022/11/09 09:51:03;;;;;;;5.20;1.02;;;15.90;75.00;;;;;;4881512;29;20064;-78
2022/11/09 09:53:31;;;;;;;;;;;15.90;75.00;;;;;;4882279;29;20059;-77
2022/11/09 09:56:05;;;;;;;4.88;0.93;;;15.90;75.20;;;;;;4881475;29;19946;-80
2022/11/09 09:58:37;;;;;;;6.18;1.27;;;15.90;75.20;;;;;;4881466;29;20060;-78
2022/11/09 10:01:11;;;;;;;5.90;1.73;;;15.90;75.20;;;;;;4895606;29;20063;-78
2022/11/09 10:03:37;;;;;;;6.05;1.58;;;15.90;75.20;;;;;;4881423;29;20366;-77
2022/11/09 10:06:41;;;;;;;4.45;1.40;;;15.90;75.20;;;;;;4881021;29;20334;-76
2022/11/09 10:09:21;;;;;;;5.83;1.03;;;15.90;75.30;;;;;;4865272;29;20053;-78
2022/11/09 10:12:08;;;;;;;11.05;1.92;;;15.90;75.30;;;;;;4881353;29;20112;-78
2022/11/09 10:15:22;;;;;;;5.70;1.70;;;15.90;75.40;;;;;;4864284;29;20045;-77
2022/11/09 10:18:06;;;;;;;9.73;2.65;;;15.90;75.40;;;;;;4824558;29;20054;-76
2022/11/09 10:21:04;;;;;;;6.55;1.65;;;15.90;75.30;;;;;;4880483;29;20060;-77
2022/11/09 10:23:30;;;;;;;4.60;1.30;;;15.90;75.30;;;;;;4864912;29;20052;-78
2022/11/09 10:26:09;;;;;;;3.85;1.13;;;15.90;75.50;;;;;;4879976;29;20119;-76
2022/11/09 10:28:40;;;;;;;3.05;0.90;;;15.90;75.40;;;;;;4881143;29;20048;-78
2022/11/09 10:31:16;;;;;;;6.00;1.38;;;15.90;75.50;;;;;;4881555;29;20041;-77
2022/11/09 10:33:45;;;;;;;8.35;2.08;;;15.90;75.50;;;;;;4868926;29;20076;-79
2022/11/09 10:36:36;;;;;;;5.60;1.20;;;15.90;75.50;;;;;;4868388;29;20045;-77
2022/11/09 10:39:03;;;;;;;6.78;1.48;;;15.90;75.10;;;;;;4885073;29;20044;-78
2022/11/09 10:41:32;;;;;;;6.85;1.75;;;15.90;75.50;;;;;;4868550;29;20055;-77
2022/11/09 10:43:58;;;;;;;6.40;1.55;;;15.90;75.70;;;;;;4885190;29;20044;-82
2022/11/09 10:46:23;;;;;;;6.50;1.40;;;15.90;75.70;;;;;;4884546;29;20131;-74
2022/11/09 10:48:51;;;;;;;7.18;1.58;;;15.90;75.70;;;;;;4884753;29;20500;-74
2022/11/09 10:51:45;;;;;;;10.00;3.15;;;15.90;75.30;;;;;;4884582;29;20199;-74
2022/11/09 10:54:23;;;;;;;10.02;2.78;;;15.90;74.30;;;;;;4871229;29;20045;-73
2022/11/09 10:56:59;;;;;;;7.75;1.92;;;15.90;74.10;;;;;;4880930;29;20437;-75
2022/11/09 10:59:43;;;;;;;9.93;3.13;;;15.90;74.10;;;;;;4899046;29;20124;-72
2022/11/09 11:02:39;;;;;;;8.80;2.30;;;15.90;74.10;;;;;;4894694;29;20056;-77
2022/11/09 11:06:15;;;;;;;9.48;2.00;;;15.90;74.20;;;;;;4886752;29;20413;-77
2022/11/09 11:09:07;;;;;;;10.07;2.28;;;15.90;74.30;;;;;;4870965;29;20101;-77
2022/11/09 11:11:37;;;;;;;6.30;1.88;;;15.90;74.30;;;;;;4862816;29;20131;-78
2022/11/09 11:14:33;;;;;;;7.43;2.53;;;15.90;74.50;;;;;;4867162;29;20141;-76
2022/11/09 11:17:23;;;;;;;9.63;1.83;;;15.90;74.50;;;;;;4882104;29;20060;-77
2022/11/09 11:20:32;;;;;;;8.83;1.97;;;15.90;74.60;;;;;;4886090;29;20045;-76
2022/11/09 11:23:22;;;;;;;11.80;2.08;;;16.00;74.80;;;;;;4883810;29;20041;-76
2022/11/09 11:25:54;;;;;;;8.13;2.40;;;15.90;74.90;;;;;;4883964;29;20053;-76
2022/11/09 11:28:50;;;;;;;11.57;2.63;;;15.90;75.10;;;;;;4883624;29;20084;-77
2022/11/09 11:31:18;;;;;;;13.75;2.33;;;16.00;75.10;;;;;;4883815;29;20080;-77
2022/11/09 11:33:48;;;;;;;18.00;5.40;;;16.00;75.00;;;;;;4884206;29;20063;-80
2022/11/09 11:36:28;;;;;;;15.65;2.50;;;16.00;75.00;;;;;;4867334;29;20057;-78
2022/11/09 11:39:31;;;;;;;12.98;3.30;;;16.10;74.80;;;;;;4883264;29;20456;-77
2022/11/09 11:42:23;;;;;;;13.88;3.17;;;16.00;74.90;;;;;;4883430;29;20119;-77
2022/11/09 11:45:12;;;;;;;10.25;3.03;;;16.00;75.60;;;;;;4899110;29;20184;-77
2022/11/09 11:48:00;;;;;;;6.43;2.92;;;16.00;75.70;;;;;;4880086;29;20408;-75
2022/11/09 11:50:53;;;;;;;10.07;2.95;;;16.10;75.30;;;;;;4882911;29;20479;-74
2022/11/09 11:53:43;;;;;;;12.50;3.03;;;16.10;75.40;;;;;;4883604;29;20077;-77
2022/11/09 12:04:44;;;;;;;10.43;2.05;;;16.10;75.90;;;;;;4804256;29;20066;-79
2022/11/09 12:08:29;;;;;;;;;;;;;;;;;;;;;
2022/11/09 12:15:51;;;;;;;7.32;1.80;;;16.30;76.40;;;;;;4789544;30;20495;-81
2022/11/09 12:22:53;;;;;;;9.20;2.30;;;16.40;76.80;;;;;;4769164;30;20145;-77
2022/11/09 12:30:06;;;;;;;8.70;2.20;;;16.50;77.00;;;;;;4779430;30;20130;-78
2022/11/09 12:32:53;;;;;;;6.72;1.60;;;16.50;76.90;;;;;;4794076;29;20167;-79
2022/11/09 12:35:23;;;;;;;12.40;2.13;;;16.50;77.00;;;;;;4876339;29;20062;-76
2022/11/09 12:37:57;;;;;;;9.95;1.70;;;16.50;76.70;;;;;;4850721;29;20056;-79
2022/11/09 12:40:53;;;;;;;5.78;1.10;;;16.50;76.20;;;;;;4881522;29;20135;-77
2022/11/09 12:44:01;;;;;;;5.25;0.80;;;16.50;75.70;;;;;;4865923;29;20049;-79
2022/11/09 12:46:33;;;;;;;1.45;0.40;;;16.50;75.10;;;;;;4882249;29;20457;-74
2022/11/09 12:49:04;;;;;;;2.78;0.40;;;16.40;74.60;;;;;;4884372;29;20435;-79
2022/11/09 12:51:33;;;;;;;2.85;0.60;;;16.50;74.30;;;;;;4888407;29;20053;-78
2022/11/09 12:54:08;;;;;;;5.55;0.57;;;16.40;74.10;;;;;;4883031;29;20104;-77
2022/11/09 12:56:48;;;;;;;3.72;0.70;;;16.40;74.00;;;;;;4863188;29;20063;-79
2022/11/09 12:59:31;;;;;;;3.75;0.75;;;16.40;74.10;;;;;;4880700;29;20369;-79
2022/11/09 13:01:59;;;;;;;3.88;0.22;;;16.40;74.20;;;;;;4881142;29;20052;-79
2022/11/09 13:04:26;;;;;;;3.78;0.73;;;16.30;74.10;;;;;;4896777;29;20056;-79
2022/11/09 13:07:16;;;;;;;2.70;0.47;;;16.40;74.60;;;;;;4896682;29;20133;-80
2022/11/09 13:09:54;;;;;;;1.30;0.20;;;16.40;73.90;;;;;;4881343;29;20524;-79
2022/11/09 13:12:33;;;;;;;2.22;0.40;;;16.40;73.90;;;;;;4863088;29;20395;-82
2022/11/09 13:15:25;;;;;;;2.17;0.40;;;16.40;73.80;;;;;;4862816;29;20044;-79
2022/11/09 13:17:59;;;;;;;2.80;0.38;;;16.40;73.80;;;;;;4880728;29;20033;-82
2022/11/09 13:20:34;;;;;;;4.13;0.75;;;16.40;73.90;;;;;;4878810;29;20368;-80
2022/11/09 13:23:03;;;;;;;1.10;0.30;;;16.40;73.90;;;;;;4862954;29;20089;-79
2022/11/09 13:25:43;;;;;;;4.20;0.68;;;16.40;74.00;;;;;;4849559;29;20053;-81
2022/11/09 13:28:42;;;;;;;1.55;0.40;;;16.40;74.00;;;;;;4879115;29;20044;-81
2022/11/09 13:31:09;;;;;;;2.17;0.43;;;16.40;74.00;;;;;;4887749;29;20064;-77
2022/11/09 13:33:35;;;;;;;7.82;1.27;;;16.40;74.20;;;;;;4864972;29;20053;-76
2022/11/09 13:36:28;;;;;;;;;;;;;;;;;;;;;
2022/11/09 13:39:29;;;;;;;5.32;0.70;;;16.40;74.20;;;;;;4876661;29;20096;-79
2022/11/09 13:42:39;;;;;;;5.10;0.60;;;16.30;74.20;;;;;;4880166;29;20044;-80
2022/11/09 14:03:50;;;;;;;4.70;1.13;;;16.20;75.50;;;;;;4788737;29;20042;-79
2022/11/09 14:14:27;;;;;;;;;;;16.20;75.90;;;;;;4774637;29;20062;-79
2022/11/09 14:18:01;;;;;;;10.52;1.38;;;16.30;75.90;;;;;;4783661;29;19928;-80
2022/11/09 14:24:31;;;;;;;8.48;1.40;;;16.30;76.30;;;;;;4779728;30;20438;-74
2022/11/09 14:27:09;;;;;;;8.18;1.13;;;16.30;76.10;;;;;;4843442;29;20053;-74
2022/11/09 14:29:36;;;;;;;7.55;0.85;;;16.20;74.80;;;;;;4837638;29;20109;-73
2022/11/09 14:32:25;;;;;;;8.05;0.70;;;16.20;74.30;;;;;;4843495;29;20435;-74
2022/11/09 14:34:51;;;;;;;2.85;0.80;;;16.10;73.50;;;;;;4844290;29;20381;-74
2022/11/09 14:37:18;;;;;;;7.63;1.38;;;16.00;73.10;;;;;;4844355;29;20045;-76
2022/11/09 14:39:52;;;;;;;6.57;1.00;;;15.90;73.50;;;;;;4858931;29;20085;-78
2022/11/09 14:42:21;;;;;;;5.30;1.17;;;15.80;74.50;;;;;;4844006;29;20397;-77
2022/11/09 14:44:48;;;;;;;6.00;1.17;;;15.80;74.90;;;;;;4844144;29;20057;-77
2022/11/09 14:47:32;;;;;;;7.80;0.93;;;15.80;75.10;;;;;;4844025;29;20130;-78
2022/11/09 14:49:58;;;;;;;7.35;1.08;;;15.80;75.10;;;;;;4844238;29;20057;-78
2022/11/09 14:52:28;;;;;;;5.00;0.80;;;15.90;75.30;;;;;;4855980;29;20133;-74
2022/11/09 14:54:57;;;;;;;5.90;0.82;;;15.90;75.30;;;;;;4843788;29;20454;-76
2022/11/09 14:57:26;;;;;;;8.57;1.13;;;15.90;75.40;;;;;;4862682;29;20052;-76
2022/11/09 14:59:53;;;;;;;6.03;1.60;;;16.00;75.40;;;;;;4845266;29;20069;-75
2022/11/09 15:02:21;;;;;;;5.47;0.93;;;16.00;75.50;;;;;;4860262;29;20041;-77
2022/11/09 15:05:01;;;;;;;7.70;0.88;;;16.00;75.40;;;;;;4868606;29;20053;-73
2022/11/09 15:07:33;;;;;;;3.15;0.73;;;16.00;75.50;;;;;;4896404;29;20487;-77
2022/11/09 15:10:07;;;;;;;3.85;0.90;;;16.10;76.10;;;;;;4899622;29;20059;-73
2022/11/09 15:12:34;;;;;;;6.93;1.10;;;16.10;75.30;;;;;;4883216;29;20056;-74
2022/11/09 15:15:04;;;;;;;3.03;1.15;;;16.10;75.20;;;;;;4899660;29;20469;-78
2022/11/09 15:17:31;;;;;;;10.20;1.70;;;16.10;75.00;;;;;;4899821;29;20060;-74
2022/11/09 15:20:00;;;;;;;5.18;1.20;;;16.10;75.00;;;;;;4883860;29;20053;-73
2022/11/09 15:22:50;;;;;;;4.22;1.10;;;16.10;74.90;;;;;;4899837;29;20072;-77
2022/11/09 15:25:33;;;;;;;4.35;0.75;;;16.10;74.70;;;;;;4884410;29;20417;-77
2022/11/09 15:28:10;;;;;;;4.72;1.10;;;16.10;74.70;;;;;;4865474;29;20041;-78
2022/11/09 15:30:59;;;;;;;6.50;1.33;;;16.10;74.70;;;;;;4875505;29;20460;-76
2022/11/09 15:33:42;;;;;;;7.78;2.10;;;16.10;74.70;;;;;;4876648;29;20082;-77
2022/11/09 15:36:28;;;;;;;6.20;1.70;;;16.10;75.10;;;;;;4883916;29;20136;-76
2022/11/09 15:39:00;;;;;;;10.88;3.38;;;16.10;75.30;;;;;;4883964;29;20045;-73
2022/11/09 15:41:27;;;;;;;9.90;1.67;;;16.20;76.40;;;;;;4883759;29;20041;-74
2022/11/09 15:43:53;;;;;;;8.02;1.77;;;16.20;76.60;;;;;;4867302;29;20466;-75
2022/11/09 15:46:23;;;;;;;9.02;1.55;;;16.20;76.20;;;;;;4883190;29;20103;-76
2022/11/09 15:48:49;;;;;;;4.85;1.30;;;16.20;76.00;;;;;;4899167;29;20082;-74
2022/11/09 15:51:21;;;;;;;8.85;1.58;;;16.20;76.00;;;;;;4883340;29;20532;-79
2022/11/09 15:53:49;;;;;;;8.30;1.73;;;16.20;75.90;;;;;;4897604;29;20380;-79
2022/11/09 15:56:22;;;;;;;7.68;2.28;;;16.20;76.00;;;;;;4851842;29;20052;-78
2022/11/09 15:58:53;;;;;;;7.55;2.33;;;16.20;76.30;;;;;;4848907;29;20095;-79
2022/11/09 16:01:19;;;;;;;11.40;3.13;;;16.20;76.90;;;;;;4880908;29;20048;-75
2022/11/09 16:03:45;;;;;;;7.82;2.40;;;16.30;77.80;;;;;;4882833;29;20048;-75
2022/11/09 16:06:17;;;;;;;6.70;1.65;;;16.30;77.70;;;;;;4866125;29;20487;-77
2022/11/09 16:08:53;;;;;;;10.95;2.65;;;16.30;77.10;;;;;;4882087;29;20048;-81
2022/11/09 16:11:19;;;;;;;10.65;2.40;;;16.30;76.80;;;;;;4866816;29;20080;-79
2022/11/09 16:13:45;;;;;;;7.97;1.92;;;16.30;77.10;;;;;;4866878;29;20053;-80
2022/11/09 16:16:13;;;;;;;13.02;2.28;;;16.30;77.60;;;;;;4866765;29;20053;-80
2022/11/09 16:18:38;;;;;;;11.90;1.80;;;16.30;78.00;;;;;;4867067;29;20376;-79
2022/11/09 16:21:09;;;;;;;9.00;2.13;;;16.20;78.30;;;;;;4851561;29;20057;-79
2022/11/09 16:23:35;;;;;;;11.13;2.33;;;16.20;78.50;;;;;;4897827;29;20059;-82
2022/11/09 16:26:11;;;;;;;12.75;2.45;;;16.30;78.80;;;;;;4883422;29;20037;-80
2022/11/09 16:28:39;;;;;;;12.32;2.17;;;16.20;79.00;;;;;;4882830;29;20060;-79
2022/11/09 16:31:05;;;;;;;11.90;2.25;;;16.30;79.10;;;;;;4882510;29;20381;-79
2022/11/09 16:33:31;;;;;;;12.30;2.53;;;16.30;79.50;;;;;;4893965;29;20049;-77
2022/11/09 16:36:00;;;;;;;10.02;1.90;;;16.30;79.70;;;;;;4866847;29;20071;-80
2022/11/09 16:38:30;;;;;;;17.80;2.42;;;16.30;79.80;;;;;;4866112;29;20044;-78
2022/11/09 16:40:59;;;;;;;16.23;2.25;;;16.20;80.00;;;;;;4866162;29;20060;-76
2022/11/09 16:43:25;;;;;;;10.68;2.00;;;16.30;80.10;;;;;;4866115;29;20041;-79
2022/11/09 16:45:52;;;;;;;14.30;2.80;;;16.30;80.00;;;;;;4882757;29;20056;-78
2022/11/09 16:48:18;;;;;;;15.68;2.40;;;16.30;79.80;;;;;;4882750;29;20421;-80
2022/11/09 16:50:47;;;;;;;18.85;2.08;;;16.30;79.40;;;;;;4897633;29;20064;-81
2022/11/09 16:53:37;;;;;;;15.75;2.20;;;16.30;78.40;;;;;;4897601;29;20365;-82
2022/11/09 16:56:08;;;;;;;24.00;2.35;;;16.30;77.50;;;;;;4861269;29;20096;-81
2022/11/09 16:58:34;;;;;;;7.88;1.80;;;16.30;76.90;;;;;;4882417;29;20561;-80
2022/11/09 17:01:01;;;;;;;11.95;2.33;;;16.30;76.20;;;;;;4882613;29;20351;-75
2022/11/09 17:03:26;;;;;;;11.68;1.80;;;16.20;75.70;;;;;;4882275;29;20063;-80
2022/11/09 17:05:52;;;;;;;8.05;1.58;;;16.20;75.90;;;;;;4850458;29;20467;-78
2022/11/09 17:08:18;;;;;;;13.23;2.70;;;16.20;76.00;;;;;;4882291;29;20060;-78
2022/11/09 17:10:45;;;;;;;11.60;1.60;;;16.20;76.00;;;;;;4882544;29;20045;-80
2022/11/09 17:13:12;;;;;;;8.70;1.27;;;16.20;76.10;;;;;;4882330;29;20048;-80
2022/11/09 17:15:50;;;;;;;10.90;1.80;;;16.20;76.00;;;;;;4882953;29;20041;-80
2022/11/09 17:18:17;;;;;;;7.97;1.02;;;16.30;76.00;;;;;;4882106;29;20084;-81
2022/11/09 17:20:44;;;;;;;13.68;1.77;;;16.20;76.10;;;;;;4882114;29;20045;-77
2022/11/09 17:23:11;;;;;;;11.15;1.30;;;16.30;76.10;;;;;;4897428;29;20041;-77
2022/11/09 17:25:38;;;;;;;9.07;1.95;;;16.30;76.10;;;;;;4882008;29;20132;-78
2022/11/09 17:28:04;;;;;;;6.63;1.08;;;16.30;76.10;;;;;;4865999;29;20471;-76
2022/11/09 17:30:30;;;;;;;8.85;1.65;;;16.30;76.10;;;;;;4882467;29;20152;-80
2022/11/09 17:32:56;;;;;;;5.18;1.65;;;16.30;76.20;;;;;;4896438;29;20056;-78
2022/11/09 17:35:23;;;;;;;5.45;1.60;;;16.30;76.10;;;;;;4882200;29;20437;-79
2022/11/09 17:37:49;;;;;;;5.20;1.40;;;16.30;76.20;;;;;;4881626;29;20056;-78
2022/11/09 17:40:16;;;;;;;7.82;1.58;;;16.30;76.20;;;;;;4881973;29;20091;-79
2022/11/09 17:42:42;;;;;;;3.95;1.15;;;16.30;76.10;;;;;;4896199;29;20473;-78
2022/11/09 17:45:08;;;;;;;7.50;1.20;;;16.30;76.20;;;;;;4881987;29;20085;-76
2022/11/09 17:47:33;;;;;;;4.85;1.30;;;16.30;76.20;;;;;;4881306;29;20064;-78
2022/11/09 17:49:59;;;;;;;7.15;1.45;;;16.30;76.10;;;;;;4881885;29;20357;-78
2022/11/09 17:52:25;;;;;;;8.10;1.63;;;16.30;76.10;;;;;;4897071;29;20068;-78
2022/11/09 17:54:50;;;;;;;3.20;0.90;;;16.30;76.20;;;;;;4881147;29;20092;-78
2022/11/09 17:57:16;;;;;;;5.07;1.10;;;16.30;76.20;;;;;;4881127;29;20057;-78
2022/11/09 17:59:42;;;;;;;8.65;1.38;;;16.30;76.30;;;;;;4880469;29;20120;-79
2022/11/09 18:02:09;;;;;;;6.90;1.08;;;16.30;76.30;;;;;;4879690;29;20103;-79
2022/11/09 18:04:36;;;;;;;7.88;1.25;;;16.30;76.30;;;;;;4863079;29;20060;-78
2022/11/09 18:07:02;;;;;;;8.48;1.83;;;16.30;76.30;;;;;;4880001;29;20068;-79
2022/11/09 18:09:28;;;;;;;8.48;1.35;;;16.30;76.30;;;;;;4880039;29;20052;-78
2022/11/09 18:11:54;;;;;;;6.18;1.15;;;16.30;76.40;;;;;;4881554;29;20425;-79
2022/11/09 18:14:22;;;;;;;6.50;1.23;;;16.30;76.50;;;;;;4896312;29;20076;-80
2022/11/09 18:16:48;;;;;;;8.07;0.70;;;16.30;76.40;;;;;;4880157;29;20520;-80
2022/11/09 18:19:13;;;;;;;6.00;1.20;;;16.30;76.30;;;;;;4860423;29;20040;-80
2022/11/09 18:21:46;;;;;;;5.35;1.00;;;16.30;76.10;;;;;;4888120;29;20049;-81
2022/11/09 18:24:13;;;;;;;5.13;1.63;;;16.30;76.10;;;;;;4896163;29;20056;-82
2022/11/09 18:26:38;;;;;;;5.28;1.17;;;16.30;76.60;;;;;;4896834;29;20071;-80
2022/11/09 18:29:25;;;;;;;6.95;0.90;;;16.30;76.90;;;;;;4864814;29;20044;-79
2022/11/09 18:31:57;;;;;;;6.85;1.17;;;16.30;77.70;;;;;;4863797;29;20056;-80
2022/11/09 18:34:34;;;;;;;3.50;1.00;;;16.30;76.90;;;;;;4848964;29;20516;-78
2022/11/09 18:37:03;;;;;;;3.00;0.75;;;16.30;77.00;;;;;;4848917;29;20045;-81
2022/11/09 18:39:31;;;;;;;2.33;0.80;;;16.30;77.20;;;;;;4871921;29;20048;-83
2022/11/09 18:41:59;;;;;;;6.05;1.00;;;16.30;77.50;;;;;;4883249;29;20068;-77
2022/11/09 18:44:27;;;;;;;4.50;1.05;;;16.40;77.60;;;;;;4899158;29;20044;-80
2022/11/09 18:47:24;;;;;;;4.47;0.85;;;16.40;78.50;;;;;;4883864;29;20044;-80
2022/11/09 18:57:59;;;;;;;12.63;1.40;;;16.30;76.70;;;;;;5133627;27;20395;-78
2022/11/09 19:00:25;;;;;;;3.55;0.82;;;16.30;77.30;;;;;;5113056;28;20050;-77
2022/11/09 19:02:51;;;;;;;4.68;0.80;;;16.30;77.00;;;;;;5112854;28;20430;-76
2022/11/09 19:05:16;;;;;;;3.50;1.25;;;16.30;76.60;;;;;;5087865;28;20097;-77
2022/11/09 19:07:42;;;;;;;7.35;1.75;;;16.30;76.30;;;;;;5092608;28;20128;-79
2022/11/09 19:10:08;;;;;;;9.23;1.58;;;16.30;76.00;;;;;;5101753;28;20469;-78
2022/11/09 19:12:34;;;;;;;5.53;1.58;;;16.20;75.50;;;;;;5112992;28;20039;-75
2022/11/09 19:15:00;;;;;;;6.03;1.30;;;16.20;75.20;;;;;;5112680;28;20044;-79
2022/11/09 19:17:26;;;;;;;3.67;0.75;;;16.20;74.90;;;;;;5082925;28;20116;-82
2022/11/09 19:19:51;;;;;;;7.35;1.20;;;16.20;74.60;;;;;;5087122;28;20052;-79
2022/11/09 19:22:17;;;;;;;4.32;0.80;;;16.20;74.40;;;;;;5092314;28;20063;-86
2022/11/09 19:24:45;;;;;;;4.18;1.20;;;16.20;74.10;;;;;;5057771;28;20044;-80
2022/11/09 19:27:10;;;;;;;3.78;1.13;;;16.20;73.80;;;;;;5057416;28;20097;-77
2022/11/09 19:29:39;;;;;;;3.88;0.82;;;16.10;73.50;;;;;;5091770;28;20044;-76
2022/11/09 19:32:08;;;;;;;3.97;1.17;;;16.20;73.50;;;;;;5087363;28;20043;-78
2022/11/09 19:34:41;;;;;;;3.78;0.85;;;16.10;73.30;;;;;;5109232;28;20108;-77
2022/11/09 19:37:08;;;;;;;6.60;1.38;;;16.10;73.50;;;;;;5071098;28;20032;-77
2022/11/09 19:39:48;;;;;;;4.22;1.30;;;16.10;73.70;;;;;;5057580;28;20140;-78
2022/11/09 19:42:20;;;;;;;4.30;0.77;;;16.20;73.90;;;;;;5083592;28;20048;-78
2022/11/09 19:44:49;;;;;;;3.88;1.00;;;16.20;74.10;;;;;;5077518;28;20039;-77
2022/11/09 19:47:22;;;;;;;5.22;1.02;;;16.20;74.10;;;;;;5076981;28;20051;-79
2022/11/09 19:49:48;;;;;;;5.10;1.17;;;16.20;74.20;;;;;;5094165;28;20105;-77
2022/11/09 19:52:14;;;;;;;3.92;0.73;;;16.20;74.20;;;;;;5077360;28;20078;-77
2022/11/09 19:54:42;;;;;;;3.17;0.60;;;16.20;74.30;;;;;;5098975;28;20047;-78
2022/11/09 19:57:08;;;;;;;4.05;0.95;;;16.20;74.40;;;;;;5100508;28;20532;-77
2022/11/09 19:59:36;;;;;;;2.38;0.70;;;16.30;74.50;;;;;;5093720;28;20063;-77
2022/11/09 20:02:02;;;;;;;4.53;0.70;;;16.30;74.60;;;;;;5096997;28;20100;-79
2022/11/09 20:04:31;;;;;;;6.13;1.27;;;16.30;74.70;;;;;;5097234;28;20039;-79
2022/11/09 20:07:03;;;;;;;5.47;1.67;;;16.30;74.70;;;;;;5097587;28;20380;-76
2022/11/09 20:09:32;;;;;;;5.10;1.02;;;16.30;74.60;;;;;;5117572;28;20118;-75
2022/11/09 20:14:42;;;;;;;4.63;1.10;;;16.30;73.60;;;;;;5097842;28;20051;-77
2022/11/09 20:17:08;;;;;;;7.72;0.90;;;16.20;73.10;;;;;;5098063;28;20036;-76